EPPO/POZ METAR and TAF weather

Enter ICAO airport designator
Station Type Date Time Source
EPPO METAR 2022/06/30 02:00 UTC NOAA

EPPO 300200Z 03004KT 6000 TSRA BKN060CB 18/17 Q1015


Station Type Date Time Source
EPPO Decoded METAR 2022/06/30 02:00 UTC NOAA

Poznan, Poland (EPPO) 52-25N 016-50E 92M
Jun 29, 2022 - 10:00 PM EDT / 2022.06.30 0200 UTC
Wind: from the NNE (030 degrees) at 5 MPH (4 KT):0
Visibility: 3 mile(s):0
Sky conditions: mostly cloudy
Weather: rain with thunder; Cumulonimbus clouds observed
Temperature: 64 F (18 C)
Dew Point: 62 F (17 C)
Relative Humidity: 93%
Pressure (altimeter): 29.97 in. Hg (1015 hPa)
ob: EPPO 300200Z 03004KT 6000 TSRA BKN060CB 18/17 Q1015
cycle: 2

Station Type Date Time Source
EPPO TAF 2022/06/29 18:33 UTC NOAA

TAF EPPO 291730Z 2918/3018 06005KT CAVOK
TEMPO 2920/3004 4000 SHRA BKN006 BKN020CB PROB30
TEMPO 2922/3004 VRB15G25KT 2000 +TSRA BKN004 BKN012CB
TEMPO 3004/3007 2000 BR BKN004

Example: see airport list